createdAt,value
2019-01-02T00:00:18.299Z,99.90
2019-01-02T00:02:44.698Z,99.90
2019-01-02T00:05:10.721Z,99.90
2019-01-02T00:07:36.722Z,99.90
2019-01-02T00:10:04.358Z,99.90
2019-01-02T00:12:30.368Z,99.90
2019-01-02T00:14:56.606Z,99.90
2019-01-02T00:17:22.733Z,99.90
2019-01-02T00:19:49.133Z,99.90
2019-01-02T00:22:15.371Z,99.90
2019-01-02T00:24:41.690Z,99.90
2019-01-02T00:27:07.690Z,99.90
2019-01-02T00:29:33.900Z,99.90
2019-01-02T00:32:00.142Z,99.90
2019-01-02T00:34:26.447Z,99.90
2019-01-02T00:36:52.446Z,99.90
2019-01-02T00:39:18.870Z,99.90
2019-01-02T00:41:44.863Z,99.90
2019-01-02T00:44:11.180Z,99.90
2019-01-02T00:46:37.431Z,99.90
2019-01-02T00:49:03.843Z,99.90
2019-01-02T00:51:29.855Z,99.90
2019-01-02T00:53:56.066Z,99.90
2019-01-02T00:56:22.302Z,99.90
2019-01-02T00:58:48.624Z,99.90
2019-01-02T01:01:14.627Z,99.90
2019-01-02T01:03:40.643Z,99.90
2019-01-02T01:06:06.643Z,99.90
2019-01-02T01:08:32.666Z,99.90
2019-01-02T01:10:59.193Z,99.90
2019-01-02T01:13:25.321Z,99.90
2019-01-02T01:15:51.821Z,99.90
2019-01-02T01:18:17.846Z,99.90
2019-01-02T01:20:44.486Z,99.90
2019-01-02T01:23:10.730Z,99.90
2019-01-02T01:25:37.135Z,99.90
2019-01-02T01:28:03.151Z,99.90
2019-01-02T01:30:29.154Z,99.90
2019-01-02T01:32:55.398Z,99.90
2019-01-02T01:35:21.411Z,99.90
2019-01-02T01:37:47.875Z,99.90
2019-01-02T01:40:13.880Z,99.90
2019-01-02T01:42:40.138Z,99.90
2019-01-02T01:45:08.543Z,99.90
2019-01-02T01:47:34.805Z,99.90
2019-01-02T01:50:01.108Z,99.90
2019-01-02T01:52:27.127Z,99.90
2019-01-02T01:54:53.552Z,99.90
2019-01-02T01:57:19.558Z,99.90
2019-01-02T01:59:45.810Z,99.90
2019-01-02T02:02:12.118Z,99.90
2019-01-02T02:04:38.371Z,99.90
2019-01-02T02:07:04.775Z,99.90
2019-01-02T02:09:30.798Z,99.90
2019-01-02T02:11:56.808Z,99.90
2019-01-02T02:14:22.808Z,99.90
2019-01-02T02:16:48.830Z,99.90
2019-01-02T02:19:15.054Z,99.90
2019-01-02T02:21:41.082Z,99.90
2019-01-02T02:24:07.711Z,99.90
2019-01-02T02:26:33.710Z,99.90
2019-01-02T02:28:59.734Z,99.90
2019-01-02T02:31:25.751Z,99.90
2019-01-02T02:33:52.158Z,99.90
2019-01-02T02:36:18.575Z,99.90
2019-01-02T02:38:45.221Z,99.90
2019-01-02T02:41:11.560Z,99.90
2019-01-02T02:43:38.038Z,99.90
2019-01-02T02:46:04.277Z,99.90
2019-01-02T02:48:30.919Z,99.90
2019-01-02T02:50:57.478Z,99.90
2019-01-02T02:53:23.786Z,99.90
2019-01-02T02:55:50.095Z,99.90
2019-01-02T02:58:16.516Z,99.90
2019-01-02T03:00:42.823Z,99.90
2019-01-02T03:03:09.237Z,99.90
2019-01-02T03:05:35.237Z,99.90
2019-01-02T03:08:01.341Z,99.90
2019-01-02T03:10:27.649Z,99.90
2019-01-02T03:12:54.057Z,99.90
2019-01-02T03:15:20.369Z,99.90
2019-01-02T03:17:46.378Z,99.80
2019-01-02T03:20:13.810Z,98.70
2019-01-02T03:22:40.319Z,98.90
2019-01-02T03:25:08.774Z,97.90
2019-01-02T03:27:35.408Z,98.70
2019-01-02T03:30:03.011Z,99.10
2019-01-02T03:32:29.445Z,97.40
2019-01-02T03:34:55.854Z,98.40
2019-01-02T03:37:21.866Z,99.30
2019-01-02T03:39:47.869Z,97.10
2019-01-02T03:42:13.874Z,96.50
2019-01-02T03:44:39.900Z,96.60
2019-01-02T03:47:05.913Z,97.60
2019-01-02T03:49:32.159Z,97.40
2019-01-02T03:51:58.179Z,97.70
2019-01-02T03:54:24.210Z,97.30
2019-01-02T03:56:50.201Z,96.90
2019-01-02T03:59:16.214Z,96.90
2019-01-02T04:01:42.213Z,97.00
2019-01-02T04:04:08.229Z,97.80
2019-01-02T04:06:34.241Z,96.90
2019-01-02T04:09:00.261Z,97.10
2019-01-02T04:11:26.271Z,96.30
2019-01-02T04:13:52.294Z,95.70
2019-01-02T04:16:18.307Z,95.70
2019-01-02T04:18:44.323Z,96.00
2019-01-02T04:21:10.341Z,95.10
2019-01-02T04:23:36.603Z,94.80
2019-01-02T04:26:02.719Z,94.70
2019-01-02T04:28:28.948Z,95.30
2019-01-02T04:30:54.972Z,95.90
2019-01-02T04:33:21.019Z,94.90
2019-01-02T04:35:47.130Z,96.10
2019-01-02T04:38:13.167Z,95.40
2019-01-02T04:40:39.257Z,95.70
2019-01-02T04:43:05.279Z,95.50
2019-01-02T04:45:31.293Z,95.20
2019-01-02T04:47:57.537Z,95.00
2019-01-02T04:50:23.553Z,95.30
2019-01-02T04:52:49.578Z,95.30
2019-01-02T04:55:15.602Z,95.30
2019-01-02T04:57:41.607Z,95.80
2019-01-02T05:00:10.432Z,96.40
2019-01-02T05:02:36.445Z,96.90
2019-01-02T05:05:03.805Z,97.30
2019-01-02T05:07:30.043Z,95.90
2019-01-02T05:09:56.287Z,96.00
2019-01-02T05:12:22.315Z,96.50
2019-01-02T05:14:48.322Z,96.80
2019-01-02T05:17:14.433Z,96.90
2019-01-02T05:19:40.433Z,96.80
2019-01-02T05:22:06.459Z,96.90
2019-01-02T05:24:32.478Z,96.30
2019-01-02T05:26:58.494Z,97.30
2019-01-02T05:29:24.530Z,97.00
2019-01-02T05:31:50.540Z,96.80
2019-01-02T05:34:16.534Z,96.30
2019-01-02T05:36:42.854Z,96.40
2019-01-02T05:39:08.854Z,96.40
2019-01-02T05:41:34.869Z,95.90
2019-01-02T05:44:00.891Z,96.10
2019-01-02T05:46:27.131Z,96.70
2019-01-02T05:48:53.149Z,97.00
2019-01-02T05:51:19.150Z,97.80
2019-01-02T05:53:45.170Z,97.20
2019-01-02T05:56:11.180Z,97.30
2019-01-02T05:58:37.437Z,96.70
2019-01-02T06:01:03.442Z,98.00
2019-01-02T06:03:29.699Z,98.60
2019-01-02T06:05:55.710Z,97.20
2019-01-02T06:08:21.952Z,96.90
2019-01-02T06:10:47.979Z,97.50
2019-01-02T06:13:14.000Z,98.00
2019-01-02T06:15:40.018Z,97.90
2019-01-02T06:18:06.272Z,98.30
2019-01-02T06:20:32.284Z,99.40
2019-01-02T06:22:58.310Z,99.90
2019-01-02T06:25:24.351Z,99.90
2019-01-02T06:27:50.359Z,99.90
2019-01-02T06:30:16.362Z,99.90
2019-01-02T06:32:42.395Z,99.90
2019-01-02T06:35:08.401Z,99.90
2019-01-02T06:37:34.411Z,99.90
2019-01-02T06:40:00.414Z,99.90
2019-01-02T06:42:26.431Z,99.90
2019-01-02T06:44:52.441Z,99.90
2019-01-02T06:47:18.691Z,99.90
2019-01-02T06:49:44.724Z,99.60
2019-01-02T06:52:10.747Z,99.80
2019-01-02T06:54:37.006Z,99.70
2019-01-02T06:57:03.036Z,99.40
2019-01-02T06:59:29.055Z,99.10
2019-01-02T07:01:55.055Z,98.80
2019-01-02T07:04:21.070Z,98.70
2019-01-02T07:06:47.073Z,98.70
2019-01-02T07:09:13.102Z,98.30
2019-01-02T07:11:39.117Z,97.50
2019-01-02T07:14:05.395Z,97.20
2019-01-02T07:16:31.394Z,98.30
2019-01-02T07:18:57.423Z,98.40
2019-01-02T07:21:23.438Z,98.70
2019-01-02T07:23:49.699Z,99.30
2019-01-02T07:26:15.723Z,99.70
2019-01-02T07:28:41.738Z,99.90
2019-01-02T07:31:07.750Z,99.80
2019-01-02T07:33:43.687Z,99.90
2019-01-02T07:36:22.400Z,99.90
2019-01-02T07:38:55.419Z,99.90
2019-01-02T07:41:48.687Z,99.90
2019-01-02T07:44:18.523Z,99.90
2019-01-02T07:46:57.176Z,99.90
2019-01-02T07:49:43.351Z,99.90
2019-01-02T07:52:28.273Z,99.90
2019-01-02T07:55:14.865Z,99.90
2019-01-02T07:57:56.833Z,99.90
2019-01-02T08:00:26.681Z,99.90
2019-01-02T08:02:59.707Z,99.90
2019-01-02T08:05:32.396Z,99.90
2019-01-02T08:08:05.282Z,99.90
2019-01-02T08:10:40.875Z,99.90
2019-01-02T08:13:16.779Z,99.90
2019-01-02T08:15:58.816Z,99.90
2019-01-02T08:18:40.499Z,99.90
2019-01-02T08:21:25.236Z,99.90
2019-01-02T08:24:16.355Z,99.30
2019-01-02T08:27:03.921Z,99.30
2019-01-02T08:29:40.002Z,99.90
2019-01-02T08:32:35.423Z,97.70
2019-01-02T08:35:11.381Z,98.80
2019-01-02T08:37:56.628Z,99.90
2019-01-02T08:40:48.859Z,99.90
2019-01-02T08:43:21.677Z,99.90
2019-01-02T08:46:00.535Z,99.90
2019-01-02T08:48:36.148Z,99.90
2019-01-02T08:51:35.610Z,99.90
2019-01-02T08:54:17.575Z,99.50
2019-01-02T08:56:50.214Z,99.90
2019-01-02T08:59:38.274Z,99.20
2019-01-02T09:02:22.484Z,98.40
2019-01-02T09:05:19.003Z,97.90
2019-01-02T09:08:03.063Z,98.00
2019-01-02T09:10:49.423Z,97.50
2019-01-02T09:13:24.999Z,96.80
2019-01-02T09:15:57.995Z,96.00
2019-01-02T09:18:27.794Z,95.20
2019-01-02T09:21:15.835Z,94.80
2019-01-02T09:24:20.191Z,94.50
2019-01-02T09:26:56.217Z,93.80
2019-01-02T09:29:31.754Z,94.50
2019-01-02T09:32:07.328Z,93.20
2019-01-02T09:35:05.679Z,92.30
2019-01-02T09:37:56.561Z,92.70
2019-01-02T09:40:35.756Z,91.80
2019-01-02T09:43:11.550Z,93.40
2019-01-02T09:45:44.462Z,96.10
2019-01-02T09:48:28.944Z,93.60
2019-01-02T09:51:15.168Z,94.80
2019-01-02T09:54:05.718Z,94.90
2019-01-02T09:56:38.607Z,94.70
2019-01-02T09:59:23.629Z,96.80
2019-01-02T10:02:26.809Z,97.30
2019-01-02T10:05:11.283Z,99.30
2019-01-02T10:07:57.787Z,98.80
2019-01-02T10:10:27.611Z,98.60
2019-01-02T10:13:22.992Z,98.90
2019-01-02T10:16:01.762Z,97.90
2019-01-02T10:18:49.356Z,95.70
2019-01-02T10:21:25.274Z,94.00
2019-01-02T10:24:29.672Z,92.50
2019-01-02T10:27:18.855Z,92.10
2019-01-02T10:29:51.691Z,91.80
2019-01-02T10:32:27.339Z,91.00
2019-01-02T10:35:13.843Z,91.40
2019-01-02T10:38:01.660Z,89.70
2019-01-02T10:40:40.046Z,90.50
2019-01-02T10:43:33.952Z,88.70
2019-01-02T10:46:09.576Z,89.50
2019-01-02T10:48:56.125Z,90.50
2019-01-02T10:51:54.239Z,91.30
2019-01-02T10:54:32.938Z,91.40
2019-01-02T10:57:02.837Z,90.60
2019-01-02T10:59:38.465Z,89.70
2019-01-02T11:02:14.264Z,89.50
2019-01-02T11:05:01.816Z,89.50
2019-01-02T11:07:46.020Z,87.20
2019-01-02T11:10:24.928Z,87.10
2019-01-02T11:13:12.427Z,90.70
2019-01-02T11:16:18.282Z,95.10
2019-01-02T11:18:59.922Z,96.50
2019-01-02T11:21:38.367Z,96.60
2019-01-02T11:24:24.648Z,94.50
2019-01-02T11:27:09.181Z,94.50
2019-01-02T11:29:39.220Z,94.60
2019-01-02T11:32:21.222Z,95.50
2019-01-02T11:34:51.024Z,95.60
2019-01-02T11:37:36.022Z,96.50
2019-01-02T11:40:15.899Z,97.20
2019-01-02T11:42:51.616Z,95.20
2019-01-02T11:45:17.631Z,96.90
2019-01-02T11:47:43.634Z,92.90
2019-01-02T11:50:11.379Z,90.80
2019-01-02T11:52:37.511Z,90.20
2019-01-02T11:55:05.651Z,91.00
2019-01-02T11:57:31.664Z,87.60
2019-01-02T11:59:57.674Z,89.10
2019-01-02T12:02:23.708Z,87.00
2019-01-02T12:04:49.718Z,86.80
2019-01-02T12:07:15.727Z,85.70
2019-01-02T12:09:41.751Z,79.20
2019-01-02T12:12:07.762Z,74.30
2019-01-02T12:14:33.801Z,72.20
2019-01-02T12:16:59.803Z,74.10
2019-01-02T12:19:25.845Z,72.50
2019-01-02T12:21:51.865Z,71.20
2019-01-02T12:24:17.870Z,71.30
2019-01-02T12:26:44.112Z,72.00
2019-01-02T12:29:10.127Z,72.40
2019-01-02T12:31:36.145Z,72.80
2019-01-02T12:34:02.386Z,70.50
2019-01-02T12:36:28.446Z,70.20
2019-01-02T12:38:54.767Z,65.10
2019-01-02T12:41:21.019Z,63.90
2019-01-02T12:43:47.017Z,64.70
2019-01-02T12:46:13.048Z,65.30
2019-01-02T12:48:39.156Z,65.80
2019-01-02T12:51:05.396Z,66.10
2019-01-02T12:53:31.401Z,66.90
2019-01-02T12:55:57.412Z,66.40
2019-01-02T12:58:23.438Z,67.00
2019-01-02T13:00:53.491Z,68.10
2019-01-02T13:03:29.073Z,67.90
2019-01-02T13:06:07.559Z,66.70
2019-01-02T13:08:37.374Z,68.00
2019-01-02T13:11:10.193Z,66.90
2019-01-02T13:14:14.750Z,68.60
2019-01-02T13:17:11.309Z,67.30
2019-01-02T13:19:56.507Z,69.10
2019-01-02T13:22:42.713Z,68.60
2019-01-02T13:25:12.558Z,64.50
2019-01-02T13:27:45.118Z,64.60
2019-01-02T13:30:36.370Z,65.00
2019-01-02T13:33:21.312Z,63.30
2019-01-02T13:36:03.981Z,64.90
2019-01-02T13:38:42.316Z,63.50
2019-01-02T13:41:27.027Z,61.60
2019-01-02T13:44:02.201Z,61.20
2019-01-02T13:46:40.706Z,57.00
2019-01-02T13:49:33.085Z,54.70
2019-01-02T13:51:59.418Z,54.50
2019-01-02T13:54:25.634Z,56.50
2019-01-02T13:56:51.647Z,55.40
2019-01-02T13:59:17.685Z,55.60
2019-01-02T14:01:43.691Z,56.00
2019-01-02T14:04:09.710Z,57.60
2019-01-02T14:06:35.778Z,59.30
2019-01-02T14:09:05.420Z,59.30
2019-01-02T14:11:31.410Z,59.80
2019-01-02T14:13:57.671Z,59.20
2019-01-02T14:16:23.693Z,60.30
2019-01-02T14:18:49.705Z,59.00
2019-01-02T14:21:15.737Z,58.60
2019-01-02T14:23:42.214Z,59.40
2019-01-02T14:26:08.215Z,59.50
2019-01-02T14:28:34.218Z,60.80
2019-01-02T14:31:00.247Z,61.30
2019-01-02T14:33:26.503Z,60.30
2019-01-02T14:35:52.516Z,60.10
2019-01-02T14:38:18.509Z,60.40
2019-01-02T14:40:44.747Z,60.30
2019-01-02T14:43:11.008Z,59.90
2019-01-02T14:45:37.029Z,60.40
2019-01-02T14:48:03.039Z,60.90
2019-01-02T14:50:29.304Z,60.20
2019-01-02T14:52:55.305Z,60.30
2019-01-02T14:55:21.315Z,60.20
2019-01-02T14:57:47.581Z,60.40
2019-01-02T15:00:13.569Z,59.80
2019-01-02T15:02:39.835Z,58.00
2019-01-02T15:05:05.830Z,57.30
2019-01-02T15:07:31.858Z,58.00
2019-01-02T15:09:57.884Z,56.50
2019-01-02T15:12:25.312Z,56.70
2019-01-02T15:14:51.310Z,57.00
2019-01-02T15:17:17.323Z,57.70
2019-01-02T15:19:43.347Z,58.20
2019-01-02T15:22:09.349Z,58.10
2019-01-02T15:24:35.365Z,57.60
2019-01-02T15:27:01.375Z,58.00
2019-01-02T15:29:27.398Z,58.50
2019-01-02T15:31:53.407Z,59.70
2019-01-02T15:34:19.658Z,60.30
2019-01-02T15:36:45.665Z,61.90
2019-01-02T15:39:11.685Z,63.40
2019-01-02T15:41:37.704Z,63.40
2019-01-02T15:44:03.727Z,63.30
2019-01-02T15:46:29.751Z,64.50
2019-01-02T15:48:55.777Z,64.60
2019-01-02T15:51:22.983Z,65.20
2019-01-02T15:53:49.091Z,64.90
2019-01-02T15:56:15.107Z,64.40
2019-01-02T15:58:41.330Z,63.50
2019-01-02T16:01:07.345Z,64.50
2019-01-02T16:03:33.378Z,64.50
2019-01-02T16:05:59.395Z,63.40
2019-01-02T16:08:25.428Z,62.20
2019-01-02T16:10:51.463Z,61.30
2019-01-02T16:13:17.471Z,60.80
2019-01-02T16:15:43.710Z,59.60
2019-01-02T16:18:09.705Z,59.20
2019-01-02T16:20:35.747Z,58.70
2019-01-02T16:23:01.779Z,58.30
2019-01-02T16:25:27.782Z,58.30
2019-01-02T16:27:53.797Z,58.30
2019-01-02T16:30:19.814Z,58.80
2019-01-02T16:32:45.847Z,58.30
2019-01-02T16:35:11.863Z,58.50
2019-01-02T16:37:37.908Z,57.80
2019-01-02T16:40:07.397Z,58.20
2019-01-02T16:42:33.418Z,58.20
2019-01-02T16:44:59.444Z,58.30
2019-01-02T16:47:25.472Z,59.10
2019-01-02T16:49:51.730Z,59.40
2019-01-02T16:52:17.741Z,59.40
2019-01-02T16:54:43.757Z,58.90
2019-01-02T16:57:10.002Z,59.50
2019-01-02T16:59:36.072Z,59.70
2019-01-02T17:02:02.397Z,59.60
2019-01-02T17:04:28.639Z,59.90
2019-01-02T17:06:54.879Z,61.00
2019-01-02T17:09:20.906Z,60.20
2019-01-02T17:11:46.917Z,61.20
2019-01-02T17:14:12.936Z,61.40
2019-01-02T17:16:38.961Z,61.40
2019-01-02T17:19:04.985Z,62.10
2019-01-02T17:21:31.047Z,63.10
2019-01-02T17:23:57.158Z,63.00
2019-01-02T17:26:23.171Z,64.10
2019-01-02T17:28:49.424Z,65.40
2019-01-02T17:31:15.429Z,64.90
2019-01-02T17:33:41.429Z,64.70
2019-01-02T17:36:07.459Z,64.90
2019-01-02T17:38:33.685Z,64.60
2019-01-02T17:40:59.923Z,64.40
2019-01-02T17:43:25.925Z,65.10
2019-01-02T17:45:52.170Z,66.20
2019-01-02T17:48:18.174Z,66.30
2019-01-02T17:50:44.420Z,66.50
2019-01-02T17:53:10.433Z,67.50
2019-01-02T17:55:36.447Z,67.90
2019-01-02T17:58:02.556Z,67.50
2019-01-02T18:00:28.593Z,68.20
2019-01-02T18:02:54.618Z,68.90
2019-01-02T18:05:20.625Z,69.80
2019-01-02T18:07:46.636Z,67.60
2019-01-02T18:10:12.866Z,66.80
2019-01-02T18:12:38.871Z,68.10
2019-01-02T18:15:06.227Z,68.70
2019-01-02T18:17:32.249Z,67.60
2019-01-02T18:19:58.271Z,66.70
2019-01-02T18:22:24.498Z,66.70
2019-01-02T18:24:50.535Z,66.60
2019-01-02T18:27:16.534Z,68.00
2019-01-02T18:29:42.542Z,69.40
2019-01-02T18:32:08.550Z,70.80
2019-01-02T18:34:34.814Z,72.10
2019-01-02T18:37:00.839Z,71.00
2019-01-02T18:39:27.079Z,70.40
2019-01-02T18:41:53.123Z,69.10
2019-01-02T18:44:20.450Z,70.00
2019-01-02T18:46:46.985Z,70.90
2019-01-02T18:49:12.987Z,71.80
2019-01-02T18:51:39.014Z,72.10
2019-01-02T18:54:05.038Z,70.90
2019-01-02T18:56:31.054Z,69.20
2019-01-02T18:58:57.070Z,69.10
2019-01-02T19:01:23.069Z,70.60
2019-01-02T19:03:49.175Z,72.00
2019-01-02T19:06:15.402Z,70.70
2019-01-02T19:08:41.417Z,70.40
2019-01-02T19:11:07.438Z,70.00
2019-01-02T19:13:33.456Z,70.20
2019-01-02T19:15:59.470Z,70.60
2019-01-02T19:18:25.483Z,70.70
2019-01-02T19:20:51.518Z,72.00
2019-01-02T19:23:17.534Z,70.30
2019-01-02T19:25:43.552Z,69.90
2019-01-02T19:28:09.800Z,68.90
2019-01-02T19:30:35.902Z,69.90
2019-01-02T19:33:01.910Z,68.70
2019-01-02T19:35:27.920Z,68.70
2019-01-02T19:37:53.927Z,68.10
2019-01-02T19:40:19.943Z,68.70
2019-01-02T19:42:45.958Z,68.60
2019-01-02T19:45:12.210Z,69.70
2019-01-02T19:47:38.233Z,70.10
2019-01-02T19:50:06.671Z,70.20
2019-01-02T19:52:32.701Z,72.20
2019-01-02T19:54:58.716Z,73.20
2019-01-02T19:57:24.944Z,72.90
2019-01-02T19:59:50.997Z,73.50
2019-01-02T20:02:17.074Z,70.50
2019-01-02T20:04:43.079Z,69.40
2019-01-02T20:07:09.078Z,70.30
2019-01-02T20:09:35.101Z,71.40
2019-01-02T20:12:01.119Z,72.60
2019-01-02T20:14:27.204Z,73.50
2019-01-02T20:16:53.215Z,74.90
2019-01-02T20:19:19.227Z,75.50
2019-01-02T20:21:45.237Z,74.30
2019-01-02T20:24:11.258Z,73.50
2019-01-02T20:26:37.263Z,73.10
2019-01-02T20:29:03.265Z,73.80
2019-01-02T20:31:29.278Z,74.80
2019-01-02T20:33:55.292Z,75.10
2019-01-02T20:36:21.320Z,74.60
2019-01-02T20:38:47.553Z,75.10
2019-01-02T20:41:13.567Z,77.00
2019-01-02T20:43:39.571Z,78.30
2019-01-02T20:46:05.591Z,78.20
2019-01-02T20:48:31.831Z,78.20
2019-01-02T20:50:57.874Z,78.50
2019-01-02T20:53:23.884Z,78.60
2019-01-02T20:55:49.884Z,80.30
2019-01-02T20:58:15.900Z,80.20
2019-01-02T21:00:42.134Z,79.50
2019-01-02T21:03:08.166Z,80.40
2019-01-02T21:05:34.178Z,81.00
2019-01-02T21:08:00.414Z,80.10
2019-01-02T21:10:26.427Z,78.70
2019-01-02T21:12:52.432Z,78.70
2019-01-02T21:15:18.449Z,80.30
2019-01-02T21:17:44.450Z,81.00
2019-01-02T21:20:10.499Z,81.70
2019-01-02T21:22:36.736Z,81.90
2019-01-02T21:25:05.133Z,83.30
2019-01-02T21:27:31.148Z,82.40
2019-01-02T21:29:57.150Z,83.00
2019-01-02T21:32:23.157Z,83.50
2019-01-02T21:34:49.411Z,82.10
2019-01-02T21:37:15.441Z,77.40
2019-01-02T21:39:41.437Z,77.30
2019-01-02T21:42:07.459Z,77.20
2019-01-02T21:44:33.501Z,78.70
2019-01-02T21:46:59.578Z,80.00
2019-01-02T21:49:25.581Z,81.70
2019-01-02T21:51:51.847Z,82.30
2019-01-02T21:54:18.088Z,82.70
2019-01-02T21:56:44.095Z,82.60
2019-01-02T21:59:10.110Z,82.30
2019-01-02T22:01:36.163Z,82.60
2019-01-02T22:04:02.408Z,82.40
2019-01-02T22:06:28.638Z,83.40
2019-01-02T22:08:54.645Z,84.60
2019-01-02T22:11:20.881Z,85.20
2019-01-02T22:13:46.893Z,85.40
2019-01-02T22:16:12.894Z,85.90
2019-01-02T22:18:39.146Z,85.80
2019-01-02T22:21:05.137Z,85.20
2019-01-02T22:23:31.356Z,85.70
2019-01-02T22:25:57.371Z,84.50
2019-01-02T22:28:23.590Z,84.00
2019-01-02T22:30:49.620Z,84.90
2019-01-02T22:33:15.619Z,85.30
2019-01-02T22:35:41.637Z,85.90
2019-01-02T22:38:07.867Z,87.20
2019-01-02T22:40:33.882Z,88.20
2019-01-02T22:42:59.881Z,88.70
2019-01-02T22:45:25.903Z,89.90
2019-01-02T22:47:52.158Z,89.60
2019-01-02T22:50:18.189Z,88.30
2019-01-02T22:52:44.203Z,88.60
2019-01-02T22:55:10.211Z,87.00
2019-01-02T22:57:36.223Z,86.50
2019-01-02T23:00:06.128Z,87.60
2019-01-02T23:02:34.047Z,87.80
2019-01-02T23:05:18.140Z,87.50
2019-01-02T23:07:51.833Z,88.70
2019-01-02T23:10:36.067Z,90.30
2019-01-02T23:13:09.990Z,91.30
2019-01-02T23:15:37.890Z,91.60
2019-01-02T23:18:05.801Z,91.40
2019-01-02T23:20:39.477Z,91.50
2019-01-02T23:23:13.287Z,91.70
2019-01-02T23:25:56.222Z,90.10
2019-01-02T23:28:35.913Z,88.20
2019-01-02T23:31:09.349Z,87.20
2019-01-02T23:33:37.251Z,85.90
2019-01-02T23:36:21.679Z,85.60
2019-01-02T23:38:55.397Z,85.20
2019-01-02T23:41:23.336Z,85.80
2019-01-02T23:44:07.385Z,84.90
2019-01-02T23:46:47.127Z,85.30
2019-01-02T23:49:15.030Z,84.60
2019-01-02T23:51:42.967Z,84.80
2019-01-02T23:54:27.331Z,85.50
2019-01-02T23:57:11.690Z,85.90
2019-01-02T23:59:54.501Z,85.90
